Selma, Ohio
Current Conditions -  °F | °C
As of 2:56 AM on Friday 19 Dec 2014 (Local Time) from KSGH Reporting Station
Haze Haze  
Wind Chill: 21°   Ceiling: 1600
Heat Index: 27°   Visibility: 6mi
Dew Point: 22°   Wind: 6mph
Humidity: 81%   Direction: 200°SSW
Pressure: 30.23"   Gusts: NA
Location:  39.8457°N, 83.6528°W
Report Text: KSGH 190756Z AUTO 20005KT 6SM HZ OVC016 M03/M06 A3023 RMK AO2 T10271055 SLP251
Loading
Personal Weather Stations






























Interactive Weather Map New forecast layout! Learn more

10-Day Weather Forecast

Advertisements
Track Severe Weather on mobile